sensor_id;sensor_type;location;lat;lon;timestamp;temperature;humidity
27226;DHT22;14732;51.074;3.788;2023-02-25T00:02:09;6.50;99.90
27226;DHT22;14732;51.074;3.788;2023-02-25T00:04:35;6.50;99.90
27226;DHT22;14732;51.074;3.788;2023-02-25T00:07:01;6.40;99.90
27226;DHT22;14732;51.074;3.788;2023-02-25T00:09:28;6.40;99.90
27226;DHT22;14732;51.074;3.788;2023-02-25T00:11:54;6.40;99.90
27226;DHT22;14732;51.074;3.788;2023-02-25T00:14:20;6.50;99.90
27226;DHT22;14732;51.074;3.788;2023-02-25T00:16:48;6.50;99.90
27226;DHT22;14732;51.074;3.788;2023-02-25T00:19:14;6.50;99.90
27226;DHT22;14732;51.074;3.788;2023-02-25T00:21:39;6.30;99.90
27226;DHT22;14732;51.074;3.788;2023-02-25T00:24:05;6.30;99.90
27226;DHT22;14732;51.074;3.788;2023-02-25T00:26:31;6.20;99.90
27226;DHT22;14732;51.074;3.788;2023-02-25T00:28:57;6.30;99.90
27226;DHT22;14732;51.074;3.788;2023-02-25T00:31:24;6.30;99.90
27226;DHT22;14732;51.074;3.788;2023-02-25T00:33:50;6.30;99.90
27226;DHT22;14732;51.074;3.788;2023-02-25T00:36:21;6.30;99.90
27226;DHT22;14732;51.074;3.788;2023-02-25T00:38:52;6.40;99.90
27226;DHT22;14732;51.074;3.788;2023-02-25T00:41:21;6.30;99.90
27226;DHT22;14732;51.074;3.788;2023-02-25T00:43:52;6.40;99.90
27226;DHT22;14732;51.074;3.788;2023-02-25T00:46:18;6.40;99.90
27226;DHT22;14732;51.074;3.788;2023-02-25T00:48:44;6.40;99.90
27226;DHT22;14732;51.074;3.788;2023-02-25T00:51:16;6.30;99.90
27226;DHT22;14732;51.074;3.788;2023-02-25T00:53:42;6.30;99.90
27226;DHT22;14732;51.074;3.788;2023-02-25T00:56:10;6.20;99.90
27226;DHT22;14732;51.074;3.788;2023-02-25T00:58:39;6.10;99.90
27226;DHT22;14732;51.074;3.788;2023-02-25T01:01:14;5.90;99.90
27226;DHT22;14732;51.074;3.788;2023-02-25T01:03:40;5.90;99.90
27226;DHT22;14732;51.074;3.788;2023-02-25T01:06:09;5.90;99.90
27226;DHT22;14732;51.074;3.788;2023-02-25T01:08:35;5.90;99.90
27226;DHT22;14732;51.074;3.788;2023-02-25T01:11:16;5.70;99.90
27226;DHT22;14732;51.074;3.788;2023-02-25T01:13:47;5.70;99.90
27226;DHT22;14732;51.074;3.788;2023-02-25T01:16:18;5.60;99.90
27226;DHT22;14732;51.074;3.788;2023-02-25T01:18:45;5.60;99.90
27226;DHT22;14732;51.074;3.788;2023-02-25T01:21:16;5.70;99.90
27226;DHT22;14732;51.074;3.788;2023-02-25T01:23:43;5.60;99.90
27226;DHT22;14732;51.074;3.788;2023-02-25T01:26:09;5.60;99.90
27226;DHT22;14732;51.074;3.788;2023-02-25T01:28:35;5.70;99.90
27226;DHT22;14732;51.074;3.788;2023-02-25T01:31:01;5.80;99.90
27226;DHT22;14732;51.074;3.788;2023-02-25T01:33:26;6.00;99.90
27226;DHT22;14732;51.074;3.788;2023-02-25T01:35:52;6.00;99.90
27226;DHT22;14732;51.074;3.788;2023-02-25T01:38:18;6.00;99.90
27226;DHT22;14732;51.074;3.788;2023-02-25T01:40:43;6.00;99.90
27226;DHT22;14732;51.074;3.788;2023-02-25T01:43:14;6.10;99.90
27226;DHT22;14732;51.074;3.788;2023-02-25T01:45:43;6.10;99.90
27226;DHT22;14732;51.074;3.788;2023-02-25T01:48:16;6.20;99.90
27226;DHT22;14732;51.074;3.788;2023-02-25T01:50:48;6.40;99.90
27226;DHT22;14732;51.074;3.788;2023-02-25T01:53:16;6.40;99.90
27226;DHT22;14732;51.074;3.788;2023-02-25T01:55:43;6.20;99.90
27226;DHT22;14732;51.074;3.788;2023-02-25T01:58:11;6.20;99.90
27226;DHT22;14732;51.074;3.788;2023-02-25T02:00:37;6.10;99.90
27226;DHT22;14732;51.074;3.788;2023-02-25T02:03:03;5.90;99.90
27226;DHT22;14732;51.074;3.788;2023-02-25T02:06:02;5.80;99.90
27226;DHT22;14732;51.074;3.788;2023-02-25T02:08:26;5.60;99.90
27226;DHT22;14732;51.074;3.788;2023-02-25T02:10:52;5.70;99.90
27226;DHT22;14732;51.074;3.788;2023-02-25T02:13:19;5.70;99.90
27226;DHT22;14732;51.074;3.788;2023-02-25T02:16:14;5.80;99.90
27226;DHT22;14732;51.074;3.788;2023-02-25T02:18:48;5.90;99.90
27226;DHT22;14732;51.074;3.788;2023-02-25T02:24:37;6.10;99.90
27226;DHT22;14732;51.074;3.788;2023-02-25T02:27:07;6.10;99.90
27226;DHT22;14732;51.074;3.788;2023-02-25T02:32:32;6.20;99.90
27226;DHT22;14732;51.074;3.788;2023-02-25T02:35:20;6.10;99.90
27226;DHT22;14732;51.074;3.788;2023-02-25T02:46:48;6.10;99.90
27226;DHT22;14732;51.074;3.788;2023-02-25T02:49:32;6.20;99.90
27226;DHT22;14732;51.074;3.788;2023-02-25T02:52:04;6.10;99.90
27226;DHT22;14732;51.074;3.788;2023-02-25T02:54:33;6.00;99.90
27226;DHT22;14732;51.074;3.788;2023-02-25T02:57:00;5.80;99.90
27226;DHT22;14732;51.074;3.788;2023-02-25T02:59:54;5.80;99.90
27226;DHT22;14732;51.074;3.788;2023-02-25T03:02:30;5.80;99.90
27226;DHT22;14732;51.074;3.788;2023-02-25T03:05:01;5.90;99.90
27226;DHT22;14732;51.074;3.788;2023-02-25T03:07:31;6.10;99.90
27226;DHT22;14732;51.074;3.788;2023-02-25T03:10:02;6.20;99.90
27226;DHT22;14732;51.074;3.788;2023-02-25T03:12:28;6.30;99.90
27226;DHT22;14732;51.074;3.788;2023-02-25T03:14:55;6.20;99.90
27226;DHT22;14732;51.074;3.788;2023-02-25T03:17:26;6.20;99.90
27226;DHT22;14732;51.074;3.788;2023-02-25T03:20:06;6.10;99.90
27226;DHT22;14732;51.074;3.788;2023-02-25T03:22:37;6.10;99.90
27226;DHT22;14732;51.074;3.788;2023-02-25T03:25:09;6.10;99.90
27226;DHT22;14732;51.074;3.788;2023-02-25T03:27:49;6.10;99.90
27226;DHT22;14732;51.074;3.788;2023-02-25T03:33:45;6.10;99.90
27226;DHT22;14732;51.074;3.788;2023-02-25T03:36:20;6.10;99.90
27226;DHT22;14732;51.074;3.788;2023-02-25T03:38:50;6.10;99.90
27226;DHT22;14732;51.074;3.788;2023-02-25T03:41:20;6.10;99.90
27226;DHT22;14732;51.074;3.788;2023-02-25T03:43:52;6.30;99.90
27226;DHT22;14732;51.074;3.788;2023-02-25T03:46:20;6.40;99.90
27226;DHT22;14732;51.074;3.788;2023-02-25T03:48:48;6.40;99.90
27226;DHT22;14732;51.074;3.788;2023-02-25T03:51:18;6.50;99.90
27226;DHT22;14732;51.074;3.788;2023-02-25T03:53:46;6.50;99.90
27226;DHT22;14732;51.074;3.788;2023-02-25T03:56:12;6.50;99.90
27226;DHT22;14732;51.074;3.788;2023-02-25T03:58:40;6.50;99.90
27226;DHT22;14732;51.074;3.788;2023-02-25T04:01:26;6.60;99.90
27226;DHT22;14732;51.074;3.788;2023-02-25T04:03:53;6.60;99.90
27226;DHT22;14732;51.074;3.788;2023-02-25T04:06:23;6.60;99.90
27226;DHT22;14732;51.074;3.788;2023-02-25T04:08:50;6.60;99.90
27226;DHT22;14732;51.074;3.788;2023-02-25T04:11:15;6.60;99.90
27226;DHT22;14732;51.074;3.788;2023-02-25T04:13:41;6.50;99.90
27226;DHT22;14732;51.074;3.788;2023-02-25T04:16:07;6.50;99.90
27226;DHT22;14732;51.074;3.788;2023-02-25T04:18:33;6.50;99.90
27226;DHT22;14732;51.074;3.788;2023-02-25T04:20:59;6.60;99.90
27226;DHT22;14732;51.074;3.788;2023-02-25T04:23:25;6.70;99.90
27226;DHT22;14732;51.074;3.788;2023-02-25T04:25:51;6.70;99.90
27226;DHT22;14732;51.074;3.788;2023-02-25T04:28:17;6.80;99.90
27226;DHT22;14732;51.074;3.788;2023-02-25T04:30:43;6.80;99.90
27226;DHT22;14732;51.074;3.788;2023-02-25T04:33:10;6.70;99.90
27226;DHT22;14732;51.074;3.788;2023-02-25T04:35:36;6.80;99.90
27226;DHT22;14732;51.074;3.788;2023-02-25T04:38:02;6.70;99.90
27226;DHT22;14732;51.074;3.788;2023-02-25T04:40:28;6.70;99.90
27226;DHT22;14732;51.074;3.788;2023-02-25T04:42:53;6.70;99.90
27226;DHT22;14732;51.074;3.788;2023-02-25T04:45:20;6.70;99.90
27226;DHT22;14732;51.074;3.788;2023-02-25T04:47:59;6.60;99.90
27226;DHT22;14732;51.074;3.788;2023-02-25T04:50:25;6.80;99.90
27226;DHT22;14732;51.074;3.788;2023-02-25T04:52:51;6.80;99.90
27226;DHT22;14732;51.074;3.788;2023-02-25T04:55:17;6.80;99.90
27226;DHT22;14732;51.074;3.788;2023-02-25T04:57:42;6.90;99.90
27226;DHT22;14732;51.074;3.788;2023-02-25T05:00:12;6.90;99.90
27226;DHT22;14732;51.074;3.788;2023-02-25T05:02:41;7.00;99.90
27226;DHT22;14732;51.074;3.788;2023-02-25T05:05:08;6.90;99.90
27226;DHT22;14732;51.074;3.788;2023-02-25T05:07:34;6.90;99.90
27226;DHT22;14732;51.074;3.788;2023-02-25T05:09:59;6.70;99.90
27226;DHT22;14732;51.074;3.788;2023-02-25T05:12:25;6.50;99.90
27226;DHT22;14732;51.074;3.788;2023-02-25T05:14:51;6.60;99.90
27226;DHT22;14732;51.074;3.788;2023-02-25T05:17:16;6.30;99.90
27226;DHT22;14732;51.074;3.788;2023-02-25T05:19:42;6.40;99.90
27226;DHT22;14732;51.074;3.788;2023-02-25T05:22:08;6.30;99.90
27226;DHT22;14732;51.074;3.788;2023-02-25T05:24:35;6.10;99.90
27226;DHT22;14732;51.074;3.788;2023-02-25T05:27:00;6.10;99.90
27226;DHT22;14732;51.074;3.788;2023-02-25T05:29:35;6.00;99.90
27226;DHT22;14732;51.074;3.788;2023-02-25T05:32:01;6.00;99.90
27226;DHT22;14732;51.074;3.788;2023-02-25T05:34:27;6.10;99.90
27226;DHT22;14732;51.074;3.788;2023-02-25T05:36:53;6.20;99.90
27226;DHT22;14732;51.074;3.788;2023-02-25T05:39:18;6.10;99.90
27226;DHT22;14732;51.074;3.788;2023-02-25T05:41:44;6.10;99.90
27226;DHT22;14732;51.074;3.788;2023-02-25T05:44:10;6.00;99.90
27226;DHT22;14732;51.074;3.788;2023-02-25T05:46:36;6.00;99.90
27226;DHT22;14732;51.074;3.788;2023-02-25T05:49:02;5.90;99.90
27226;DHT22;14732;51.074;3.788;2023-02-25T05:51:28;6.00;99.90
27226;DHT22;14732;51.074;3.788;2023-02-25T05:53:54;6.00;99.90
27226;DHT22;14732;51.074;3.788;2023-02-25T05:56:23;6.00;99.90
27226;DHT22;14732;51.074;3.788;2023-02-25T05:58:50;6.00;99.90
27226;DHT22;14732;51.074;3.788;2023-02-25T06:01:18;6.00;99.90
27226;DHT22;14732;51.074;3.788;2023-02-25T06:03:46;6.00;99.90
27226;DHT22;14732;51.074;3.788;2023-02-25T06:06:12;6.10;99.90
27226;DHT22;14732;51.074;3.788;2023-02-25T06:08:40;5.90;99.90
27226;DHT22;14732;51.074;3.788;2023-02-25T06:11:06;5.90;99.90
27226;DHT22;14732;51.074;3.788;2023-02-25T06:13:33;5.80;99.90
27226;DHT22;14732;51.074;3.788;2023-02-25T06:16:04;5.70;99.90
27226;DHT22;14732;51.074;3.788;2023-02-25T06:18:31;5.70;99.90
27226;DHT22;14732;51.074;3.788;2023-02-25T06:21:09;5.80;99.90
27226;DHT22;14732;51.074;3.788;2023-02-25T06:23:37;5.90;99.90
27226;DHT22;14732;51.074;3.788;2023-02-25T06:26:05;5.90;99.90
27226;DHT22;14732;51.074;3.788;2023-02-25T06:28:32;5.90;99.90
27226;DHT22;14732;51.074;3.788;2023-02-25T06:30:58;6.00;99.90
27226;DHT22;14732;51.074;3.788;2023-02-25T06:33:24;5.90;99.90
27226;DHT22;14732;51.074;3.788;2023-02-25T06:35:54;5.80;99.90
27226;DHT22;14732;51.074;3.788;2023-02-25T06:38:20;5.90;99.90
27226;DHT22;14732;51.074;3.788;2023-02-25T06:40:47;5.70;99.90
27226;DHT22;14732;51.074;3.788;2023-02-25T06:43:13;5.70;99.90
27226;DHT22;14732;51.074;3.788;2023-02-25T06:45:39;5.70;99.90
27226;DHT22;14732;51.074;3.788;2023-02-25T06:48:05;5.80;99.90
27226;DHT22;14732;51.074;3.788;2023-02-25T06:50:31;5.90;99.90
27226;DHT22;14732;51.074;3.788;2023-02-25T06:52:57;6.10;99.90
27226;DHT22;14732;51.074;3.788;2023-02-25T06:55:23;6.10;99.90
27226;DHT22;14732;51.074;3.788;2023-02-25T06:57:49;6.00;99.90
27226;DHT22;14732;51.074;3.788;2023-02-25T07:00:15;6.00;99.90
27226;DHT22;14732;51.074;3.788;2023-02-25T07:02:41;6.20;99.90
27226;DHT22;14732;51.074;3.788;2023-02-25T07:05:07;6.20;99.90
27226;DHT22;14732;51.074;3.788;2023-02-25T07:07:32;6.20;99.90
27226;DHT22;14732;51.074;3.788;2023-02-25T07:09:58;6.00;99.90
27226;DHT22;14732;51.074;3.788;2023-02-25T07:12:24;5.80;99.90
27226;DHT22;14732;51.074;3.788;2023-02-25T07:14:49;5.60;99.90
27226;DHT22;14732;51.074;3.788;2023-02-25T07:17:15;5.50;99.90
27226;DHT22;14732;51.074;3.788;2023-02-25T07:19:41;5.60;99.90
27226;DHT22;14732;51.074;3.788;2023-02-25T07:22:07;5.80;99.90
27226;DHT22;14732;51.074;3.788;2023-02-25T07:24:35;5.90;99.90
27226;DHT22;14732;51.074;3.788;2023-02-25T07:27:00;6.10;99.90
27226;DHT22;14732;51.074;3.788;2023-02-25T07:29:26;6.20;99.90
27226;DHT22;14732;51.074;3.788;2023-02-25T07:31:52;6.50;99.90
27226;DHT22;14732;51.074;3.788;2023-02-25T07:34:18;6.60;99.90
27226;DHT22;14732;51.074;3.788;2023-02-25T07:36:43;6.80;99.90
27226;DHT22;14732;51.074;3.788;2023-02-25T07:39:10;7.00;99.90
27226;DHT22;14732;51.074;3.788;2023-02-25T07:41:37;7.00;99.90
27226;DHT22;14732;51.074;3.788;2023-02-25T07:44:03;7.00;99.90
27226;DHT22;14732;51.074;3.788;2023-02-25T07:46:29;7.00;99.90
27226;DHT22;14732;51.074;3.788;2023-02-25T07:48:55;7.40;99.90
27226;DHT22;14732;51.074;3.788;2023-02-25T07:51:22;8.00;99.90
27226;DHT22;14732;51.074;3.788;2023-02-25T07:53:49;8.40;99.90
27226;DHT22;14732;51.074;3.788;2023-02-25T07:56:17;8.50;99.90
27226;DHT22;14732;51.074;3.788;2023-02-25T07:58:43;8.30;99.90
27226;DHT22;14732;51.074;3.788;2023-02-25T08:03:47;8.70;99.90
27226;DHT22;14732;51.074;3.788;2023-02-25T08:06:14;9.40;99.90
27226;DHT22;14732;51.074;3.788;2023-02-25T08:08:39;10.10;99.90
27226;DHT22;14732;51.074;3.788;2023-02-25T08:11:11;11.20;99.90
27226;DHT22;14732;51.074;3.788;2023-02-25T08:13:37;12.10;99.90
27226;DHT22;14732;51.074;3.788;2023-02-25T08:16:04;12.40;99.90
27226;DHT22;14732;51.074;3.788;2023-02-25T08:18:30;12.60;99.90
27226;DHT22;14732;51.074;3.788;2023-02-25T08:20:56;12.60;99.90
27226;DHT22;14732;51.074;3.788;2023-02-25T08:23:23;13.10;99.90
27226;DHT22;14732;51.074;3.788;2023-02-25T08:25:57;12.80;99.90
27226;DHT22;14732;51.074;3.788;2023-02-25T08:28:24;13.20;99.90
27226;DHT22;14732;51.074;3.788;2023-02-25T08:30:51;13.50;99.90
27226;DHT22;14732;51.074;3.788;2023-02-25T08:33:17;13.30;99.90
27226;DHT22;14732;51.074;3.788;2023-02-25T08:35:42;13.60;99.90
27226;DHT22;14732;51.074;3.788;2023-02-25T08:38:08;14.50;99.90
27226;DHT22;14732;51.074;3.788;2023-02-25T08:40:34;15.00;99.90
27226;DHT22;14732;51.074;3.788;2023-02-25T08:43:00;16.50;99.90
27226;DHT22;14732;51.074;3.788;2023-02-25T08:45:26;16.90;99.90
27226;DHT22;14732;51.074;3.788;2023-02-25T08:47:53;18.10;99.90
27226;DHT22;14732;51.074;3.788;2023-02-25T08:50:19;18.30;99.90
27226;DHT22;14732;51.074;3.788;2023-02-25T08:52:44;19.20;99.90
27226;DHT22;14732;51.074;3.788;2023-02-25T08:55:11;19.90;99.90
27226;DHT22;14732;51.074;3.788;2023-02-25T08:57:40;19.60;99.90
27226;DHT22;14732;51.074;3.788;2023-02-25T09:00:08;19.90;99.90
27226;DHT22;14732;51.074;3.788;2023-02-25T09:02:35;20.30;99.20
27226;DHT22;14732;51.074;3.788;2023-02-25T09:05:01;19.80;99.30
27226;DHT22;14732;51.074;3.788;2023-02-25T09:07:29;20.60;98.90
27226;DHT22;14732;51.074;3.788;2023-02-25T09:09:54;20.60;97.10
27226;DHT22;14732;51.074;3.788;2023-02-25T09:12:20;21.20;96.30
27226;DHT22;14732;51.074;3.788;2023-02-25T09:14:46;20.50;95.60
27226;DHT22;14732;51.074;3.788;2023-02-25T09:17:12;19.90;95.10
27226;DHT22;14732;51.074;3.788;2023-02-25T09:19:37;18.70;96.10
27226;DHT22;14732;51.074;3.788;2023-02-25T09:22:04;18.30;97.30
27226;DHT22;14732;51.074;3.788;2023-02-25T09:24:32;17.00;98.80
27226;DHT22;14732;51.074;3.788;2023-02-25T09:27:04;16.50;99.90
27226;DHT22;14732;51.074;3.788;2023-02-25T09:29:37;15.20;99.90
27226;DHT22;14732;51.074;3.788;2023-02-25T09:32:04;14.20;99.90
27226;DHT22;14732;51.074;3.788;2023-02-25T09:34:30;13.60;99.90
27226;DHT22;14732;51.074;3.788;2023-02-25T09:36:59;12.90;99.90
27226;DHT22;14732;51.074;3.788;2023-02-25T09:39:24;12.00;99.90
27226;DHT22;14732;51.074;3.788;2023-02-25T09:42:10;11.60;99.90
27226;DHT22;14732;51.074;3.788;2023-02-25T09:44:39;11.10;99.90
27226;DHT22;14732;51.074;3.788;2023-02-25T09:50:59;10.70;99.90
27226;DHT22;14732;51.074;3.788;2023-02-25T09:55:38;9.80;99.90
27226;DHT22;14732;51.074;3.788;2023-02-25T09:58:12;9.20;99.90
27226;DHT22;14732;51.074;3.788;2023-02-25T10:01:02;8.80;99.90
27226;DHT22;14732;51.074;3.788;2023-02-25T10:03:56;8.80;99.90
27226;DHT22;14732;51.074;3.788;2023-02-25T10:07:06;8.90;99.90
27226;DHT22;14732;51.074;3.788;2023-02-25T10:09:45;8.90;99.90
27226;DHT22;14732;51.074;3.788;2023-02-25T10:12:33;9.00;99.90
27226;DHT22;14732;51.074;3.788;2023-02-25T10:15:26;8.90;99.90
27226;DHT22;14732;51.074;3.788;2023-02-25T10:18:06;8.80;99.90
27226;DHT22;14732;51.074;3.788;2023-02-25T10:26:05;9.70;99.90
27226;DHT22;14732;51.074;3.788;2023-02-25T10:28:39;9.70;99.90
27226;DHT22;14732;51.074;3.788;2023-02-25T10:31:07;9.30;99.90
27226;DHT22;14732;51.074;3.788;2023-02-25T10:33:35;9.10;99.90
27226;DHT22;14732;51.074;3.788;2023-02-25T10:36:26;9.20;99.90
27226;DHT22;14732;51.074;3.788;2023-02-25T10:38:54;9.40;99.90
27226;DHT22;14732;51.074;3.788;2023-02-25T10:41:22;9.70;99.90
27226;DHT22;14732;51.074;3.788;2023-02-25T10:43:49;9.50;99.90
27226;DHT22;14732;51.074;3.788;2023-02-25T10:46:31;9.30;99.90
27226;DHT22;14732;51.074;3.788;2023-02-25T10:49:13;9.30;99.90
27226;DHT22;14732;51.074;3.788;2023-02-25T10:52:06;9.20;99.90
27226;DHT22;14732;51.074;3.788;2023-02-25T10:57:15;9.10;99.90
27226;DHT22;14732;51.074;3.788;2023-02-25T10:59:41;9.40;99.90
27226;DHT22;14732;51.074;3.788;2023-02-25T11:02:27;9.60;99.90
27226;DHT22;14732;51.074;3.788;2023-02-25T11:04:55;9.50;99.90
27226;DHT22;14732;51.074;3.788;2023-02-25T11:07:29;9.70;99.90
27226;DHT22;14732;51.074;3.788;2023-02-25T11:10:18;9.70;99.90
27226;DHT22;14732;51.074;3.788;2023-02-25T11:17:46;10.20;99.90
27226;DHT22;14732;51.074;3.788;2023-02-25T11:20:25;10.10;99.90
27226;DHT22;14732;51.074;3.788;2023-02-25T11:22:53;10.00;99.90
27226;DHT22;14732;51.074;3.788;2023-02-25T11:25:23;9.80;99.90
27226;DHT22;14732;51.074;3.788;2023-02-25T11:27:55;9.50;99.90
27226;DHT22;14732;51.074;3.788;2023-02-25T11:30:35;9.60;99.90
27226;DHT22;14732;51.074;3.788;2023-02-25T11:33:07;9.80;99.90
27226;DHT22;14732;51.074;3.788;2023-02-25T11:35:38;10.00;99.90
27226;DHT22;14732;51.074;3.788;2023-02-25T11:38:27;9.90;99.90
27226;DHT22;14732;51.074;3.788;2023-02-25T11:40:53;9.90;99.90
27226;DHT22;14732;51.074;3.788;2023-02-25T11:43:22;9.60;99.90
27226;DHT22;14732;51.074;3.788;2023-02-25T11:46:06;9.60;99.90
27226;DHT22;14732;51.074;3.788;2023-02-25T11:54:07;9.60;99.90
27226;DHT22;14732;51.074;3.788;2023-02-25T11:56:42;9.30;99.90
27226;DHT22;14732;51.074;3.788;2023-02-25T12:35:56;9.30;99.90
27226;DHT22;14732;51.074;3.788;2023-02-25T13:17:51;8.90;99.90
27226;DHT22;14732;51.074;3.788;2023-02-25T13:29:04;9.30;99.90
27226;DHT22;14732;51.074;3.788;2023-02-25T13:32:05;9.20;99.90
27226;DHT22;14732;51.074;3.788;2023-02-25T13:35:09;9.20;99.90
27226;DHT22;14732;51.074;3.788;2023-02-25T13:38:02;9.10;99.90
27226;DHT22;14732;51.074;3.788;2023-02-25T13:41:13;9.30;99.90
27226;DHT22;14732;51.074;3.788;2023-02-25T13:46:21;9.10;99.90
27226;DHT22;14732;51.074;3.788;2023-02-25T14:05:26;8.70;99.90
27226;DHT22;14732;51.074;3.788;2023-02-25T14:22:59;8.90;99.90
27226;DHT22;14732;51.074;3.788;2023-02-25T14:28:09;9.20;99.90
27226;DHT22;14732;51.074;3.788;2023-02-25T14:36:48;8.30;99.90
27226;DHT22;14732;51.074;3.788;2023-02-25T14:39:18;8.10;99.90
27226;DHT22;14732;51.074;3.788;2023-02-25T14:44:40;8.10;99.90
27226;DHT22;14732;51.074;3.788;2023-02-25T14:47:18;8.00;99.90
27226;DHT22;14732;51.074;3.788;2023-02-25T14:50:05;7.90;99.90
27226;DHT22;14732;51.074;3.788;2023-02-25T15:11:30;8.30;99.90
27226;DHT22;14732;51.074;3.788;2023-02-25T15:17:10;8.20;99.90
27226;DHT22;14732;51.074;3.788;2023-02-25T15:22:24;8.20;99.90
27226;DHT22;14732;51.074;3.788;2023-02-25T15:25:27;8.10;99.90
27226;DHT22;14732;51.074;3.788;2023-02-25T15:30:12;7.80;99.90
27226;DHT22;14732;51.074;3.788;2023-02-25T15:38:04;7.80;99.90
27226;DHT22;14732;51.074;3.788;2023-02-25T15:45:48;7.80;99.90
27226;DHT22;14732;51.074;3.788;2023-02-25T15:55:47;7.70;99.90
27226;DHT22;14732;51.074;3.788;2023-02-25T16:01:26;7.60;99.90
27226;DHT22;14732;51.074;3.788;2023-02-25T16:03:52;7.80;99.90
27226;DHT22;14732;51.074;3.788;2023-02-25T16:06:38;7.70;99.90
27226;DHT22;14732;51.074;3.788;2023-02-25T16:09:15;7.70;99.90
27226;DHT22;14732;51.074;3.788;2023-02-25T16:11:47;7.70;99.90
27226;DHT22;14732;51.074;3.788;2023-02-25T16:14:29;7.70;99.90
27226;DHT22;14732;51.074;3.788;2023-02-25T16:19:30;7.60;99.90
27226;DHT22;14732;51.074;3.788;2023-02-25T16:22:04;7.50;99.90
27226;DHT22;14732;51.074;3.788;2023-02-25T16:24:30;7.60;99.90
27226;DHT22;14732;51.074;3.788;2023-02-25T16:26:57;7.50;99.90
27226;DHT22;14732;51.074;3.788;2023-02-25T16:37:44;7.50;99.90
27226;DHT22;14732;51.074;3.788;2023-02-25T16:40:18;7.50;99.90
27226;DHT22;14732;51.074;3.788;2023-02-25T16:42:45;7.40;99.90
27226;DHT22;14732;51.074;3.788;2023-02-25T16:45:32;7.40;99.90
27226;DHT22;14732;51.074;3.788;2023-02-25T16:48:19;7.40;99.90
27226;DHT22;14732;51.074;3.788;2023-02-25T16:50:47;7.40;99.90
27226;DHT22;14732;51.074;3.788;2023-02-25T16:53:22;7.20;99.90
27226;DHT22;14732;51.074;3.788;2023-02-25T16:55:49;7.10;99.90
27226;DHT22;14732;51.074;3.788;2023-02-25T17:00:52;7.20;99.90
27226;DHT22;14732;51.074;3.788;2023-02-25T17:03:19;7.10;99.90
27226;DHT22;14732;51.074;3.788;2023-02-25T17:06:02;7.20;99.90
27226;DHT22;14732;51.074;3.788;2023-02-25T17:08:28;7.20;99.90
27226;DHT22;14732;51.074;3.788;2023-02-25T17:10:56;7.20;99.90
27226;DHT22;14732;51.074;3.788;2023-02-25T17:13:24;7.20;99.90
27226;DHT22;14732;51.074;3.788;2023-02-25T17:15:51;7.10;99.90
27226;DHT22;14732;51.074;3.788;2023-02-25T17:18:27;7.00;99.90
27226;DHT22;14732;51.074;3.788;2023-02-25T17:21:07;6.90;99.90
27226;DHT22;14732;51.074;3.788;2023-02-25T17:23:39;6.70;99.90
27226;DHT22;14732;51.074;3.788;2023-02-25T17:26:05;6.70;99.90
27226;DHT22;14732;51.074;3.788;2023-02-25T17:28:32;6.70;99.90
27226;DHT22;14732;51.074;3.788;2023-02-25T17:31:08;6.70;99.90
27226;DHT22;14732;51.074;3.788;2023-02-25T17:33:35;6.70;99.90
27226;DHT22;14732;51.074;3.788;2023-02-25T17:36:12;6.60;99.90
27226;DHT22;14732;51.074;3.788;2023-02-25T17:38:44;6.60;99.90
27226;DHT22;14732;51.074;3.788;2023-02-25T17:41:17;6.60;99.90
27226;DHT22;14732;51.074;3.788;2023-02-25T17:43:43;6.60;99.90
27226;DHT22;14732;51.074;3.788;2023-02-25T17:49:02;6.40;99.90
27226;DHT22;14732;51.074;3.788;2023-02-25T17:51:34;6.30;99.90
27226;DHT22;14732;51.074;3.788;2023-02-25T17:54:11;6.30;99.90
27226;DHT22;14732;51.074;3.788;2023-02-25T17:56:38;6.30;99.90
27226;DHT22;14732;51.074;3.788;2023-02-25T18:02:00;6.10;99.90
27226;DHT22;14732;51.074;3.788;2023-02-25T18:04:40;6.10;99.90
27226;DHT22;14732;51.074;3.788;2023-02-25T18:09:48;6.20;99.90
27226;DHT22;14732;51.074;3.788;2023-02-25T18:12:22;6.20;99.90
27226;DHT22;14732;51.074;3.788;2023-02-25T18:17:42;6.00;99.90
27226;DHT22;14732;51.074;3.788;2023-02-25T18:20:41;5.90;99.90
27226;DHT22;14732;51.074;3.788;2023-02-25T18:23:19;5.70;99.90
27226;DHT22;14732;51.074;3.788;2023-02-25T18:26:10;5.70;99.90
27226;DHT22;14732;51.074;3.788;2023-02-25T18:28:36;5.70;99.90
27226;DHT22;14732;51.074;3.788;2023-02-25T18:31:03;5.60;99.90
27226;DHT22;14732;51.074;3.788;2023-02-25T18:33:29;5.60;99.90
27226;DHT22;14732;51.074;3.788;2023-02-25T18:35:55;5.60;99.90
27226;DHT22;14732;51.074;3.788;2023-02-25T18:38:22;5.60;99.90
27226;DHT22;14732;51.074;3.788;2023-02-25T18:40:49;5.70;99.90
27226;DHT22;14732;51.074;3.788;2023-02-25T18:43:25;5.70;99.90
27226;DHT22;14732;51.074;3.788;2023-02-25T18:45:58;5.60;99.90
27226;DHT22;14732;51.074;3.788;2023-02-25T18:48:24;5.50;99.90
27226;DHT22;14732;51.074;3.788;2023-02-25T18:50:50;5.50;99.90
27226;DHT22;14732;51.074;3.788;2023-02-25T18:53:19;5.60;99.90
27226;DHT22;14732;51.074;3.788;2023-02-25T18:55:45;5.50;99.90
27226;DHT22;14732;51.074;3.788;2023-02-25T18:58:12;5.50;99.90
27226;DHT22;14732;51.074;3.788;2023-02-25T19:00:38;5.50;99.90
27226;DHT22;14732;51.074;3.788;2023-02-25T19:03:05;5.50;99.90
27226;DHT22;14732;51.074;3.788;2023-02-25T19:05:34;5.50;99.90
27226;DHT22;14732;51.074;3.788;2023-02-25T19:08:01;5.40;99.90
27226;DHT22;14732;51.074;3.788;2023-02-25T19:10:30;5.40;99.90
27226;DHT22;14732;51.074;3.788;2023-02-25T19:13:05;5.30;99.90
27226;DHT22;14732;51.074;3.788;2023-02-25T19:15:31;5.40;99.90
27226;DHT22;14732;51.074;3.788;2023-02-25T19:17:57;5.30;99.90
27226;DHT22;14732;51.074;3.788;2023-02-25T19:20:23;5.20;99.90
27226;DHT22;14732;51.074;3.788;2023-02-25T19:22:50;5.10;99.90
27226;DHT22;14732;51.074;3.788;2023-02-25T19:25:25;5.10;99.90
27226;DHT22;14732;51.074;3.788;2023-02-25T19:27:52;5.10;99.90
27226;DHT22;14732;51.074;3.788;2023-02-25T19:30:21;5.00;99.90
27226;DHT22;14732;51.074;3.788;2023-02-25T19:32:48;5.00;99.90
27226;DHT22;14732;51.074;3.788;2023-02-25T19:35:14;5.00;99.90
27226;DHT22;14732;51.074;3.788;2023-02-25T19:37:40;4.90;99.90
27226;DHT22;14732;51.074;3.788;2023-02-25T19:40:10;4.90;99.90
27226;DHT22;14732;51.074;3.788;2023-02-25T19:42:37;5.00;99.90
27226;DHT22;14732;51.074;3.788;2023-02-25T19:45:04;5.00;99.90
27226;DHT22;14732;51.074;3.788;2023-02-25T19:47:30;5.00;99.90
27226;DHT22;14732;51.074;3.788;2023-02-25T19:49:56;4.80;99.90
27226;DHT22;14732;51.074;3.788;2023-02-25T19:52:22;4.80;99.90
27226;DHT22;14732;51.074;3.788;2023-02-25T19:54:48;4.80;99.90
27226;DHT22;14732;51.074;3.788;2023-02-25T19:57:14;4.80;99.90
27226;DHT22;14732;51.074;3.788;2023-02-25T19:59:39;4.80;99.90
27226;DHT22;14732;51.074;3.788;2023-02-25T20:02:06;4.80;99.90
27226;DHT22;14732;51.074;3.788;2023-02-25T20:04:32;4.80;99.90
27226;DHT22;14732;51.074;3.788;2023-02-25T20:06:58;4.80;99.90
27226;DHT22;14732;51.074;3.788;2023-02-25T20:09:23;4.80;99.90
27226;DHT22;14732;51.074;3.788;2023-02-25T20:11:49;4.70;99.90
27226;DHT22;14732;51.074;3.788;2023-02-25T20:14:17;4.80;99.90